createdAt,value
2022-09-26T00:00:30.484Z,8.84
2022-09-26T00:02:58.087Z,8.91
2022-09-26T00:05:26.944Z,8.78
2022-09-26T00:07:54.414Z,8.67
2022-09-26T00:10:21.913Z,8.67
2022-09-26T00:12:49.370Z,8.71
2022-09-26T00:15:16.959Z,9.05
2022-09-26T00:17:44.407Z,8.97
2022-09-26T00:20:11.975Z,8.95
2022-09-26T00:22:40.831Z,8.85
2022-09-26T00:25:09.196Z,8.77
2022-09-26T00:27:36.646Z,8.81
2022-09-26T00:30:05.023Z,8.91
2022-09-26T00:32:32.488Z,8.93
2022-09-26T00:34:59.998Z,8.69
2022-09-26T00:37:27.584Z,8.63
2022-09-26T00:39:56.421Z,8.68
2022-09-26T00:42:25.075Z,8.74
2022-09-26T00:44:54.603Z,8.74
2022-09-26T00:47:40.593Z,8.93
2022-09-26T00:50:13.717Z,8.85
2022-09-26T00:52:44.743Z,8.85
2022-09-26T00:55:15.334Z,8.83
2022-09-26T00:57:46.371Z,8.70
2022-09-26T01:00:15.784Z,8.69
2022-09-26T01:02:44.100Z,8.73
2022-09-26T01:05:14.601Z,8.69
2022-09-26T01:07:42.121Z,8.65
2022-09-26T01:10:10.451Z,8.75
2022-09-26T01:12:39.749Z,8.66
2022-09-26T01:15:09.305Z,8.62
2022-09-26T01:17:37.928Z,8.54
2022-09-26T01:20:14.720Z,8.54
2022-09-26T01:23:07.068Z,8.59
2022-09-26T01:25:50.652Z,8.49
2022-09-26T01:28:34.963Z,8.50
2022-09-26T01:31:11.895Z,8.64
2022-09-26T01:33:49.588Z,8.63
2022-09-26T01:36:27.543Z,8.72
2022-09-26T01:39:04.426Z,8.86
2022-09-26T01:41:44.012Z,8.81
2022-09-26T01:44:20.745Z,8.68
2022-09-26T01:46:53.362Z,8.59
2022-09-26T01:49:24.268Z,8.56
2022-09-26T01:51:55.730Z,8.57
2022-09-26T01:54:27.602Z,8.61
2022-09-26T01:56:58.273Z,8.63
2022-09-26T01:59:28.334Z,8.59
2022-09-26T02:02:00.847Z,8.55
2022-09-26T02:04:32.121Z,8.59
2022-09-26T02:07:01.647Z,8.54
2022-09-26T02:09:31.242Z,8.49
2022-09-26T02:12:02.438Z,8.39
2022-09-26T02:14:32.853Z,8.41
2022-09-26T02:17:05.603Z,8.30
2022-09-26T02:19:36.353Z,8.34
2022-09-26T02:22:04.116Z,8.49
2022-09-26T02:24:31.679Z,8.52
2022-09-26T02:26:59.260Z,8.66
2022-09-26T02:29:27.927Z,8.71
2022-09-26T02:31:58.418Z,8.61
2022-09-26T02:34:27.582Z,8.56
2022-09-26T02:36:55.879Z,8.56
2022-09-26T02:39:23.432Z,8.50
2022-09-26T02:41:54.138Z,8.24
2022-09-26T02:44:32.107Z,8.22
2022-09-26T02:47:10.789Z,8.35
2022-09-26T02:49:51.079Z,8.46
2022-09-26T02:52:27.161Z,8.40
2022-09-26T02:55:01.856Z,8.32
2022-09-26T02:57:35.750Z,8.35
2022-09-26T03:00:06.826Z,8.18
2022-09-26T03:02:37.138Z,8.01
2022-09-26T03:05:10.044Z,7.80
2022-09-26T03:07:43.752Z,8.14
2022-09-26T03:10:12.982Z,8.26
2022-09-26T03:12:40.912Z,8.04
2022-09-26T03:15:09.651Z,7.95
2022-09-26T03:17:38.039Z,7.85
2022-09-26T03:20:11.089Z,7.91
2022-09-26T03:22:38.962Z,7.82
2022-09-26T03:25:09.034Z,7.82
2022-09-26T03:27:38.222Z,7.73
2022-09-26T03:30:06.512Z,7.97
2022-09-26T03:32:33.974Z,8.03
2022-09-26T03:35:01.490Z,8.11
2022-09-26T03:37:30.306Z,8.12
2022-09-26T03:39:57.751Z,8.11
2022-09-26T03:42:25.229Z,8.04
2022-09-26T03:44:53.157Z,7.90
2022-09-26T03:47:20.585Z,7.94
2022-09-26T03:49:48.107Z,8.20
2022-09-26T03:52:15.665Z,8.38
2022-09-26T03:54:44.789Z,8.27
2022-09-26T03:57:13.504Z,8.32
2022-09-26T03:59:41.194Z,8.11
2022-09-26T04:02:08.984Z,8.21
2022-09-26T04:04:36.588Z,8.34
2022-09-26T04:07:04.338Z,8.38
2022-09-26T04:09:32.374Z,8.41
2022-09-26T04:12:01.441Z,8.20
2022-09-26T04:14:28.900Z,8.21
2022-09-26T04:16:56.738Z,8.22
2022-09-26T04:19:24.401Z,8.20
2022-09-26T04:21:52.067Z,8.26
2022-09-26T04:24:19.525Z,8.24
2022-09-26T04:26:46.972Z,8.24
2022-09-26T04:29:16.003Z,8.39
2022-09-26T04:31:44.034Z,8.51
2022-09-26T04:34:12.187Z,8.47
2022-09-26T04:36:40.040Z,8.33
2022-09-26T04:39:07.680Z,8.20
2022-09-26T04:41:35.580Z,8.18
2022-09-26T04:44:03.306Z,8.30
2022-09-26T04:46:32.168Z,8.30
2022-09-26T04:49:00.956Z,8.36
2022-09-26T04:51:29.580Z,8.31
2022-09-26T04:53:57.149Z,8.36
2022-09-26T04:56:27.036Z,8.42
2022-09-26T04:58:56.820Z,8.49
2022-09-26T05:01:24.774Z,8.29
2022-09-26T05:03:55.050Z,8.50
2022-09-26T05:06:22.544Z,8.44
2022-09-26T05:08:50.817Z,8.30
2022-09-26T05:11:19.718Z,8.39
2022-09-26T05:13:53.059Z,8.38
2022-09-26T05:16:21.045Z,8.61
2022-09-26T05:18:50.892Z,8.57
2022-09-26T05:21:19.707Z,8.41
2022-09-26T05:24:05.097Z,8.39
2022-09-26T05:26:39.505Z,8.41
2022-09-26T05:29:08.907Z,8.42
2022-09-26T05:31:38.014Z,8.53
2022-09-26T05:34:06.073Z,8.52
2022-09-26T05:36:35.152Z,8.48
2022-09-26T05:39:03.073Z,8.56
2022-09-26T05:41:31.185Z,8.62
2022-09-26T05:43:58.957Z,8.63
2022-09-26T05:46:28.003Z,8.63
2022-09-26T05:48:57.139Z,8.75
2022-09-26T05:51:25.813Z,8.57
2022-09-26T05:53:54.682Z,8.56
2022-09-26T05:56:23.520Z,8.62
2022-09-26T05:58:51.348Z,8.62
2022-09-26T06:01:19.539Z,8.62
2022-09-26T06:03:48.063Z,8.59
2022-09-26T06:06:18.794Z,8.67
2022-09-26T06:08:47.139Z,8.76
2022-09-26T06:11:17.693Z,8.77
2022-09-26T06:13:46.487Z,8.88
2022-09-26T06:16:15.852Z,8.89
2022-09-26T06:18:43.500Z,8.94
2022-09-26T06:21:13.212Z,8.94
2022-09-26T06:23:40.823Z,8.88
2022-09-26T06:26:10.185Z,8.94
2022-09-26T06:28:40.109Z,9.02
2022-09-26T06:31:10.255Z,9.08
2022-09-26T06:33:37.754Z,9.00
2022-09-26T06:36:07.477Z,9.07
2022-09-26T06:38:35.506Z,9.07
2022-09-26T06:41:03.317Z,9.16
2022-09-26T06:43:31.203Z,9.24
2022-09-26T06:46:00.005Z,9.29
2022-09-26T06:48:27.543Z,9.29
2022-09-26T06:50:55.607Z,9.35
2022-09-26T06:53:23.671Z,9.37
2022-09-26T06:55:51.128Z,9.37
2022-09-26T06:58:18.739Z,9.30
2022-09-26T07:00:46.210Z,9.37
2022-09-26T07:03:15.961Z,9.53
2022-09-26T07:05:43.707Z,9.44
2022-09-26T07:08:11.299Z,9.43
2022-09-26T07:10:38.748Z,9.37
2022-09-26T07:13:07.608Z,9.46
2022-09-26T07:15:36.958Z,9.46
2022-09-26T07:18:06.294Z,9.51
2022-09-26T07:20:37.588Z,9.50
2022-09-26T07:23:08.475Z,9.58
2022-09-26T07:25:38.704Z,9.69
2022-09-26T07:28:06.731Z,9.64
2022-09-26T07:30:34.245Z,9.81
2022-09-26T07:33:04.013Z,9.86
2022-09-26T07:35:32.229Z,9.95
2022-09-26T07:38:01.062Z,9.95
2022-09-26T07:40:28.953Z,10.07
2022-09-26T07:43:18.715Z,10.20
2022-09-26T07:46:07.709Z,10.31
2022-09-26T07:48:53.140Z,10.42
2022-09-26T07:51:22.594Z,10.52
2022-09-26T07:53:51.503Z,10.55
2022-09-26T07:56:18.968Z,10.64
2022-09-26T07:58:46.625Z,10.68
2022-09-26T08:01:15.972Z,10.68
2022-09-26T08:03:46.030Z,10.79
2022-09-26T08:06:14.619Z,10.98
2022-09-26T08:08:42.278Z,11.03
2022-09-26T08:11:16.725Z,10.91
2022-09-26T08:13:44.629Z,11.16
2022-09-26T08:16:19.200Z,11.22
2022-09-26T08:18:47.357Z,11.32
2022-09-26T08:21:14.836Z,11.34
2022-09-26T08:23:42.360Z,11.19
2022-09-26T08:26:09.849Z,11.05
2022-09-26T08:28:39.205Z,11.04
2022-09-26T08:31:08.131Z,11.13
2022-09-26T08:33:38.621Z,10.96
2022-09-26T08:36:06.526Z,10.97
2022-09-26T08:38:35.400Z,10.92
2022-09-26T08:41:11.509Z,11.05
2022-09-26T08:43:54.004Z,11.08
2022-09-26T08:46:40.776Z,11.14
2022-09-26T08:49:23.991Z,11.15
2022-09-26T08:51:52.791Z,11.17
2022-09-26T08:54:23.698Z,11.22
2022-09-26T08:56:53.780Z,11.37
2022-09-26T08:59:27.165Z,11.51
2022-09-26T09:01:56.582Z,11.52
2022-09-26T09:04:28.697Z,11.69
2022-09-26T09:06:59.680Z,11.95
2022-09-26T09:09:27.147Z,11.96
2022-09-26T09:12:05.171Z,12.06
2022-09-26T09:14:57.966Z,11.98
2022-09-26T09:17:39.379Z,11.95
2022-09-26T09:20:16.076Z,11.83
2022-09-26T09:23:01.750Z,11.97
2022-09-26T09:25:32.526Z,12.13
2022-09-26T09:28:16.243Z,12.22
2022-09-26T09:30:48.123Z,12.35
2022-09-26T09:33:17.683Z,12.49
2022-09-26T09:35:48.803Z,12.44
2022-09-26T09:38:18.637Z,12.56
2022-09-26T09:40:51.893Z,12.75
2022-09-26T09:43:26.743Z,12.89
2022-09-26T09:45:58.834Z,12.96
2022-09-26T09:48:28.202Z,13.27
2022-09-26T09:51:08.574Z,13.59
2022-09-26T09:53:48.180Z,13.48
2022-09-26T09:56:24.275Z,13.66
2022-09-26T09:59:03.736Z,13.72
2022-09-26T10:01:36.641Z,13.76
2022-09-26T10:04:07.958Z,13.83
2022-09-26T10:06:44.164Z,13.84
2022-09-26T10:09:35.589Z,13.94
2022-09-26T10:12:13.317Z,13.99
2022-09-26T10:14:44.000Z,14.09
2022-09-26T10:17:21.175Z,14.31
2022-09-26T10:19:49.034Z,14.43
2022-09-26T10:22:26.005Z,14.40
2022-09-26T10:24:55.427Z,14.32
2022-09-26T10:27:35.410Z,14.41
2022-09-26T10:30:04.775Z,14.22
2022-09-26T10:32:45.680Z,14.12
2022-09-26T10:35:20.073Z,14.04
2022-09-26T10:37:50.099Z,14.00
2022-09-26T10:40:42.504Z,13.94
2022-09-26T10:43:24.995Z,13.83
2022-09-26T10:45:55.383Z,13.70
2022-09-26T10:48:48.054Z,13.60
2022-09-26T10:51:19.865Z,13.73
2022-09-26T10:53:51.994Z,14.02
2022-09-26T10:56:26.143Z,14.15
2022-09-26T10:58:58.272Z,14.16
2022-09-26T11:01:27.674Z,14.23
2022-09-26T11:03:59.921Z,14.12
2022-09-26T11:06:29.081Z,14.19
2022-09-26T11:09:02.889Z,14.31
2022-09-26T11:11:33.633Z,14.30
2022-09-26T11:14:05.696Z,14.25
2022-09-26T11:16:51.662Z,14.18
2022-09-26T11:19:27.703Z,14.28
2022-09-26T11:22:03.251Z,14.27
2022-09-26T11:24:38.191Z,14.37
2022-09-26T11:27:13.311Z,14.22
2022-09-26T11:29:44.422Z,14.13
2022-09-26T11:32:15.108Z,14.28
2022-09-26T11:34:44.172Z,14.25
2022-09-26T11:37:22.083Z,14.36
2022-09-26T11:40:00.441Z,14.24
2022-09-26T11:42:39.595Z,14.30
2022-09-26T11:45:15.218Z,14.51
2022-09-26T11:47:58.061Z,14.72
2022-09-26T11:50:49.490Z,14.71
2022-09-26T11:53:33.361Z,14.57
2022-09-26T11:56:15.816Z,14.79
2022-09-26T11:58:48.335Z,14.87
2022-09-26T12:01:24.317Z,15.10
2022-09-26T12:04:16.386Z,15.12
2022-09-26T12:06:52.197Z,15.21
2022-09-26T12:09:32.834Z,15.02
2022-09-26T12:12:09.522Z,15.06
2022-09-26T12:14:45.847Z,15.23
2022-09-26T12:17:21.596Z,15.07
2022-09-26T12:19:56.469Z,14.98
2022-09-26T12:22:29.701Z,14.89
2022-09-26T12:25:13.052Z,14.97
2022-09-26T12:27:47.896Z,14.98
2022-09-26T12:30:17.149Z,14.73
2022-09-26T12:33:02.669Z,14.85
2022-09-26T12:35:38.412Z,14.78
2022-09-26T12:38:20.409Z,14.93
2022-09-26T12:40:56.200Z,14.77
2022-09-26T12:43:38.410Z,15.04
2022-09-26T12:46:16.952Z,15.15
2022-09-26T12:48:55.997Z,15.14
2022-09-26T12:51:30.857Z,15.17
2022-09-26T12:54:20.776Z,15.21
2022-09-26T12:56:53.111Z,15.43
2022-09-26T12:59:37.797Z,15.29
2022-09-26T13:02:20.226Z,15.04
2022-09-26T13:05:08.466Z,14.78
2022-09-26T13:07:44.813Z,14.52
2022-09-26T13:10:41.963Z,14.57
2022-09-26T13:13:30.205Z,14.57
2022-09-26T13:16:08.164Z,14.51
2022-09-26T13:18:44.679Z,14.54
2022-09-26T13:21:14.638Z,14.57
2022-09-26T13:23:46.863Z,14.47
2022-09-26T13:26:19.835Z,14.60
2022-09-26T13:29:12.859Z,14.63
2022-09-26T13:31:40.927Z,14.62
2022-09-26T13:34:14.809Z,14.61
2022-09-26T13:36:43.336Z,14.76
2022-09-26T13:39:16.245Z,14.85
2022-09-26T13:41:49.251Z,14.71
2022-09-26T13:44:27.027Z,14.78
2022-09-26T13:47:03.468Z,14.68
2022-09-26T13:49:40.075Z,14.71
2022-09-26T13:52:19.960Z,14.72
2022-09-26T13:54:57.145Z,14.63
2022-09-26T13:57:31.724Z,14.59
2022-09-26T13:59:59.617Z,14.48
2022-09-26T14:02:29.174Z,14.43
2022-09-26T14:05:28.497Z,14.41
2022-09-26T14:08:13.571Z,14.35
2022-09-26T14:10:43.298Z,14.31
2022-09-26T14:13:21.777Z,14.27
2022-09-26T14:16:03.453Z,14.18
2022-09-26T14:18:47.296Z,14.11
2022-09-26T14:21:32.679Z,14.06
2022-09-26T14:24:37.116Z,14.22
2022-09-26T14:27:21.737Z,14.14
2022-09-26T14:29:53.572Z,13.99
2022-09-26T14:32:24.001Z,14.03
2022-09-26T14:34:57.205Z,14.12
2022-09-26T14:37:30.890Z,14.43
2022-09-26T14:40:07.135Z,14.39
2022-09-26T14:42:38.325Z,14.28
2022-09-26T14:45:09.663Z,14.32
2022-09-26T14:47:41.192Z,14.48
2022-09-26T14:50:17.499Z,14.52
2022-09-26T14:52:51.564Z,14.49
2022-09-26T14:55:20.194Z,14.48
2022-09-26T14:57:48.965Z,14.48
2022-09-26T15:00:40.317Z,14.31
2022-09-26T15:03:14.742Z,14.14
2022-09-26T15:05:43.392Z,14.26
2022-09-26T15:08:24.358Z,14.10
2022-09-26T15:10:53.010Z,14.08
2022-09-26T15:13:28.192Z,14.05
2022-09-26T15:16:02.110Z,14.21
2022-09-26T15:18:34.617Z,14.11
2022-09-26T15:21:10.791Z,14.22
2022-09-26T15:23:47.861Z,14.41
2022-09-26T15:26:17.762Z,14.13
2022-09-26T15:28:48.411Z,14.14
2022-09-26T15:31:22.567Z,13.99
2022-09-26T15:33:55.993Z,13.89
2022-09-26T15:36:23.624Z,13.83
2022-09-26T15:38:51.185Z,13.78
2022-09-26T15:41:42.509Z,13.74
2022-09-26T15:44:20.548Z,13.69
2022-09-26T15:46:50.897Z,13.81
2022-09-26T15:49:22.905Z,13.85
2022-09-26T15:51:54.042Z,13.86
2022-09-26T15:54:24.055Z,13.73
2022-09-26T15:56:52.204Z,13.79
2022-09-26T15:59:22.608Z,13.74
2022-09-26T16:01:52.454Z,13.76
2022-09-26T16:04:22.411Z,13.73
2022-09-26T16:06:56.728Z,13.74
2022-09-26T16:09:27.275Z,13.70
2022-09-26T16:11:56.470Z,13.70
2022-09-26T16:14:27.039Z,13.75
2022-09-26T16:17:02.758Z,13.63
2022-09-26T16:19:33.505Z,13.66
2022-09-26T16:22:22.431Z,13.59
2022-09-26T16:24:50.940Z,13.63
2022-09-26T16:27:25.061Z,13.59
2022-09-26T16:29:52.937Z,13.50
2022-09-26T16:32:23.229Z,13.56
2022-09-26T16:34:51.122Z,13.49
2022-09-26T16:37:19.607Z,13.51
2022-09-26T16:39:56.070Z,13.41
2022-09-26T16:42:32.679Z,13.44
2022-09-26T16:45:04.780Z,13.44
2022-09-26T16:47:42.741Z,13.39
2022-09-26T16:50:26.997Z,13.26
2022-09-26T16:52:55.125Z,13.31
2022-09-26T16:55:23.151Z,13.25
2022-09-26T16:57:53.844Z,13.23
2022-09-26T17:00:40.974Z,13.23
2022-09-26T17:03:21.151Z,13.20
2022-09-26T17:05:49.171Z,13.17
2022-09-26T17:08:17.710Z,13.16
2022-09-26T17:10:45.995Z,13.09
2022-09-26T17:13:16.974Z,12.94
2022-09-26T17:15:47.608Z,12.98
2022-09-26T17:18:20.756Z,12.71
2022-09-26T17:20:49.057Z,12.64
2022-09-26T17:23:39.354Z,12.54
2022-09-26T17:26:07.795Z,12.55
2022-09-26T17:28:38.519Z,12.48
2022-09-26T17:31:07.797Z,12.49
2022-09-26T17:33:39.967Z,12.38
2022-09-26T17:36:10.792Z,12.27
2022-09-26T17:38:42.143Z,12.38
2022-09-26T17:41:12.427Z,12.34
2022-09-26T17:43:40.062Z,12.33
2022-09-26T17:46:15.173Z,12.33
2022-09-26T17:48:44.825Z,12.21
2022-09-26T17:51:14.127Z,12.24
2022-09-26T17:53:49.788Z,12.23
2022-09-26T17:56:18.503Z,12.23
2022-09-26T17:58:47.080Z,12.26
2022-09-26T18:01:22.148Z,12.14
2022-09-26T18:03:54.842Z,12.06
2022-09-26T18:06:25.925Z,12.02
2022-09-26T18:08:54.991Z,11.88
2022-09-26T18:11:22.615Z,12.04
2022-09-26T18:13:54.514Z,11.87
2022-09-26T18:16:25.118Z,11.73
2022-09-26T18:18:54.172Z,11.72
2022-09-26T18:21:24.280Z,11.67
2022-09-26T18:23:53.582Z,11.80
2022-09-26T18:26:27.262Z,11.89
2022-09-26T18:28:56.676Z,11.87
2022-09-26T18:31:28.124Z,11.91
2022-09-26T18:33:57.920Z,11.91
2022-09-26T18:36:26.155Z,11.86
2022-09-26T18:38:53.969Z,11.84
2022-09-26T18:41:26.860Z,11.86
2022-09-26T18:43:55.823Z,11.81
2022-09-26T18:46:23.658Z,11.64
2022-09-26T18:48:51.770Z,11.63
2022-09-26T18:51:20.899Z,11.59
2022-09-26T18:53:48.505Z,11.53
2022-09-26T18:56:33.705Z,11.71
2022-09-26T18:59:01.471Z,11.74
2022-09-26T19:01:31.373Z,11.75
2022-09-26T19:04:00.145Z,11.58
2022-09-26T19:06:31.988Z,11.45
2022-09-26T19:09:01.377Z,11.49
2022-09-26T19:11:32.002Z,11.31
2022-09-26T19:14:02.470Z,11.30
2022-09-26T19:16:30.128Z,11.31
2022-09-26T19:18:57.793Z,11.22
2022-09-26T19:21:31.734Z,11.24
2022-09-26T19:24:01.417Z,11.30
2022-09-26T19:26:32.362Z,11.25
2022-09-26T19:29:00.494Z,11.09
2022-09-26T19:31:28.329Z,11.09
2022-09-26T19:33:56.226Z,11.26
2022-09-26T19:36:24.050Z,11.17
2022-09-26T19:38:53.000Z,11.06
2022-09-26T19:41:20.619Z,11.03
2022-09-26T19:43:48.277Z,11.07
2022-09-26T19:46:21.143Z,11.07
2022-09-26T19:48:48.949Z,10.84
2022-09-26T19:51:19.727Z,10.92
2022-09-26T19:53:47.443Z,10.89
2022-09-26T19:56:16.479Z,10.93
2022-09-26T19:58:46.217Z,10.93
2022-09-26T20:01:16.420Z,10.70
2022-09-26T20:03:44.856Z,10.67
2022-09-26T20:06:14.232Z,10.70
2022-09-26T20:08:42.101Z,10.69
2022-09-26T20:11:09.853Z,10.67
2022-09-26T20:13:52.775Z,10.78
2022-09-26T20:16:20.724Z,10.67
2022-09-26T20:18:51.023Z,10.58
2022-09-26T20:21:20.302Z,10.56
2022-09-26T20:23:48.288Z,10.60
2022-09-26T20:26:17.334Z,10.86
2022-09-26T20:28:46.366Z,10.74
2022-09-26T20:31:21.437Z,10.62
2022-09-26T20:33:49.282Z,10.64
2022-09-26T20:36:17.469Z,10.58
2022-09-26T20:38:47.038Z,10.52
2022-09-26T20:41:20.424Z,10.44
2022-09-26T20:43:51.306Z,10.60
2022-09-26T20:46:20.872Z,10.47
2022-09-26T20:48:50.405Z,10.48
2022-09-26T20:51:20.388Z,10.43
2022-09-26T20:53:50.008Z,10.33
2022-09-26T20:56:20.873Z,10.28
2022-09-26T20:58:49.731Z,10.30
2022-09-26T21:01:20.939Z,10.23
2022-09-26T21:03:56.460Z,10.31
2022-09-26T21:06:26.605Z,10.35
2022-09-26T21:08:54.271Z,10.29
2022-09-26T21:11:23.742Z,10.34
2022-09-26T21:13:52.674Z,10.25
2022-09-26T21:16:21.370Z,10.18
2022-09-26T21:18:51.541Z,10.15
2022-09-26T21:21:22.570Z,10.28
2022-09-26T21:23:50.556Z,10.31
2022-09-26T21:26:21.026Z,10.21
2022-09-26T21:28:50.708Z,10.26
2022-09-26T21:31:26.002Z,10.26
2022-09-26T21:33:54.035Z,10.21
2022-09-26T21:36:22.179Z,10.28
2022-09-26T21:38:51.721Z,10.23
2022-09-26T21:41:19.574Z,10.26
2022-09-26T21:43:50.326Z,10.11
2022-09-26T21:46:20.318Z,10.08
2022-09-26T21:48:51.600Z,10.11
2022-09-26T21:51:20.657Z,10.17
2022-09-26T21:53:53.211Z,10.16
2022-09-26T21:56:24.347Z,10.14
2022-09-26T21:58:56.073Z,10.06
2022-09-26T22:01:24.187Z,10.18
2022-09-26T22:03:55.477Z,10.13
2022-09-26T22:06:23.339Z,10.11
2022-09-26T22:08:54.745Z,10.18
2022-09-26T22:11:22.293Z,10.24
2022-09-26T22:13:49.760Z,10.34
2022-09-26T22:16:17.802Z,10.25
2022-09-26T22:18:45.305Z,10.20
2022-09-26T22:21:14.190Z,10.25
2022-09-26T22:23:41.875Z,10.25
2022-09-26T22:26:09.491Z,10.27
2022-09-26T22:28:37.042Z,10.22
2022-09-26T22:31:05.686Z,10.14
2022-09-26T22:33:33.451Z,10.17
2022-09-26T22:36:00.930Z,10.08
2022-09-26T22:38:29.843Z,10.12
2022-09-26T22:40:57.763Z,10.22
2022-09-26T22:43:25.378Z,10.21
2022-09-26T22:45:53.145Z,10.20
2022-09-26T22:48:21.490Z,10.31
2022-09-26T22:50:48.966Z,10.22
2022-09-26T22:53:16.435Z,10.12
2022-09-26T22:55:54.706Z,10.11
2022-09-26T22:58:22.707Z,10.22
2022-09-26T23:00:50.967Z,10.13
2022-09-26T23:03:18.488Z,10.20
2022-09-26T23:05:47.911Z,10.12
2022-09-26T23:08:15.417Z,10.08
2022-09-26T23:10:49.232Z,10.04
2022-09-26T23:13:18.353Z,9.99
2022-09-26T23:15:46.169Z,10.06
2022-09-26T23:18:14.189Z,10.05
2022-09-26T23:20:42.362Z,10.08
2022-09-26T23:23:10.942Z,10.05
2022-09-26T23:25:45.837Z,10.09
2022-09-26T23:28:13.344Z,10.11
2022-09-26T23:30:42.524Z,10.08
2022-09-26T23:33:10.220Z,10.05
2022-09-26T23:35:38.161Z,10.07
2022-09-26T23:38:05.812Z,10.14
2022-09-26T23:40:34.177Z,10.14
2022-09-26T23:43:02.475Z,10.10
2022-09-26T23:45:30.960Z,10.10
2022-09-26T23:48:00.012Z,10.15
2022-09-26T23:50:27.469Z,10.16
2022-09-26T23:52:54.914Z,10.11
2022-09-26T23:55:22.425Z,10.15
2022-09-26T23:57:50.034Z,10.26
